createdAt,value
2023-04-14T00:02:24.764Z,100640.03
2023-04-14T00:04:55.143Z,100640.84
2023-04-14T00:07:22.381Z,100646.00
2023-04-14T00:09:49.342Z,100649.41
2023-04-14T00:12:16.435Z,100651.94
2023-04-14T00:14:43.665Z,100640.59
2023-04-14T00:17:11.384Z,100643.19
2023-04-14T00:19:38.561Z,100643.09
2023-04-14T00:22:05.725Z,100651.81
2023-04-14T00:24:32.823Z,100657.88
2023-04-14T00:26:59.869Z,100657.78
2023-04-14T00:29:26.942Z,100656.03
2023-04-14T00:31:53.980Z,100652.50
2023-04-14T00:34:21.194Z,100646.34
2023-04-14T00:36:48.252Z,100641.97
2023-04-14T00:39:15.280Z,100642.78
2023-04-14T00:41:43.346Z,100642.69
2023-04-14T00:44:10.940Z,100649.63
2023-04-14T00:46:39.750Z,100658.28
2023-04-14T00:49:07.545Z,100654.69
2023-04-14T00:51:36.046Z,100660.69
2023-04-14T00:54:11.020Z,100652.78
2023-04-14T00:56:39.396Z,100665.75
2023-04-14T00:59:07.558Z,100666.56
2023-04-14T01:01:38.212Z,100671.69
2023-04-14T01:04:06.128Z,100671.63
2023-04-14T01:06:33.971Z,100673.31
2023-04-14T01:09:01.619Z,100673.19
2023-04-14T01:12:14.674Z,100676.63
2023-04-14T01:15:04.852Z,100673.06
2023-04-14T01:17:34.940Z,100678.25
2023-04-14T01:20:37.758Z,100673.84
2023-04-14T01:23:27.686Z,100679.91
2023-04-14T01:26:22.080Z,100678.97
2023-04-14T01:29:19.769Z,100682.38
2023-04-14T01:32:02.080Z,100670.94
2023-04-14T01:34:43.075Z,100677.75
2023-04-14T01:37:18.153Z,100671.56
2023-04-14T01:39:53.940Z,100680.19
2023-04-14T01:42:29.008Z,100677.50
2023-04-14T01:45:02.447Z,100683.50
2023-04-14T01:47:30.432Z,100684.31
2023-04-14T01:49:59.464Z,100685.16
2023-04-14T01:52:27.822Z,100692.06
2023-04-14T01:54:57.128Z,100686.78
2023-04-14T01:57:26.584Z,100689.34
2023-04-14T01:59:59.556Z,100686.72
2023-04-14T02:02:27.865Z,100691.00
2023-04-14T02:04:57.763Z,100697.00
2023-04-14T02:07:26.705Z,100695.22
2023-04-14T02:09:56.017Z,100697.78
2023-04-14T02:12:26.593Z,100692.47
2023-04-14T02:14:55.034Z,100695.03
2023-04-14T02:17:22.636Z,100693.28
2023-04-14T02:19:51.283Z,100696.69
2023-04-14T02:22:18.308Z,100692.28
2023-04-14T02:24:47.788Z,100698.34
2023-04-14T02:27:33.441Z,100699.16
2023-04-14T02:30:12.601Z,100703.44
2023-04-14T02:32:49.698Z,100699.91
2023-04-14T02:35:27.165Z,100705.13
2023-04-14T02:38:08.355Z,100711.19
2023-04-14T02:40:41.439Z,100719.03
2023-04-14T02:43:28.739Z,100712.06
2023-04-14T02:45:56.934Z,100715.47
2023-04-14T02:48:27.200Z,100725.91
2023-04-14T02:50:56.831Z,100720.66
2023-04-14T02:53:25.567Z,100721.44
2023-04-14T02:55:52.616Z,100717.88
2023-04-14T02:58:21.136Z,100723.03
2023-04-14T03:00:50.273Z,100726.44
2023-04-14T03:03:18.758Z,100728.09
2023-04-14T03:05:47.178Z,100738.44
2023-04-14T03:08:16.842Z,100734.97
2023-04-14T03:10:48.995Z,100732.25
2023-04-14T03:13:18.815Z,100726.06
2023-04-14T03:15:46.834Z,100732.03
2023-04-14T03:18:15.904Z,100728.47
2023-04-14T03:20:45.870Z,100724.94
2023-04-14T03:23:13.897Z,100731.03
2023-04-14T03:25:41.717Z,100730.97
2023-04-14T03:28:16.188Z,100735.31
2023-04-14T03:30:49.366Z,100737.00
2023-04-14T03:33:22.919Z,100735.25
2023-04-14T03:35:53.409Z,100735.22
2023-04-14T03:38:21.521Z,100736.09
2023-04-14T03:40:50.460Z,100726.47
2023-04-14T03:43:20.327Z,100729.06
2023-04-14T03:45:49.406Z,100726.38
2023-04-14T03:48:19.597Z,100723.72
2023-04-14T03:50:51.587Z,100732.38
2023-04-14T03:53:21.342Z,100733.19
2023-04-14T03:55:51.645Z,100732.31
2023-04-14T03:58:20.430Z,100731.41
2023-04-14T04:00:48.793Z,100740.06
2023-04-14T04:03:16.703Z,100741.81
2023-04-14T04:05:44.747Z,100746.94
2023-04-14T04:08:12.731Z,100752.16
2023-04-14T04:10:42.811Z,100746.91
2023-04-14T04:13:16.660Z,100743.41
2023-04-14T04:15:45.492Z,100746.78
2023-04-14T04:18:17.032Z,100743.31
2023-04-14T04:20:46.229Z,100750.28
2023-04-14T04:23:15.693Z,100745.91
2023-04-14T04:25:43.007Z,100740.69
2023-04-14T04:28:10.314Z,100749.28
2023-04-14T04:30:42.912Z,100757.09
2023-04-14T04:33:11.568Z,100761.44
2023-04-14T04:35:41.211Z,100752.66
2023-04-14T04:38:11.380Z,100754.34
2023-04-14T04:40:39.209Z,100758.69
2023-04-14T04:43:06.225Z,100756.94
2023-04-14T04:45:59.905Z,100750.06
2023-04-14T04:48:26.977Z,100747.47
2023-04-14T04:50:54.177Z,100753.56
2023-04-14T04:53:21.197Z,100750.13
2023-04-14T04:55:48.206Z,100760.63
2023-04-14T04:58:15.271Z,100752.88
2023-04-14T05:00:43.528Z,100749.50
2023-04-14T05:03:10.735Z,100746.91
2023-04-14T05:05:38.002Z,100753.91
2023-04-14T05:08:06.003Z,100756.56
2023-04-14T05:10:37.254Z,100752.34
2023-04-14T05:13:04.337Z,100750.69
2023-04-14T05:15:31.868Z,100742.13
2023-04-14T05:17:59.318Z,100751.78
2023-04-14T05:20:26.973Z,100751.03
2023-04-14T05:22:54.002Z,100755.50
2023-04-14T05:25:21.484Z,100756.50
2023-04-14T05:27:48.513Z,100746.25
2023-04-14T05:30:15.830Z,100749.84
2023-04-14T05:32:42.884Z,100755.19
2023-04-14T05:35:10.000Z,100756.22
2023-04-14T05:37:37.059Z,100762.41
2023-04-14T05:40:05.161Z,100760.81
2023-04-14T05:42:32.192Z,100757.53
2023-04-14T05:44:59.290Z,100755.09
2023-04-14T05:47:26.440Z,100756.19
2023-04-14T05:49:53.638Z,100750.31
2023-04-14T05:52:20.690Z,100751.41
2023-04-14T05:54:47.689Z,100751.59
2023-04-14T05:57:14.741Z,100752.66
2023-04-14T05:59:42.480Z,100756.31
2023-04-14T06:02:09.741Z,100759.13
2023-04-14T06:04:37.022Z,100758.53
2023-04-14T06:07:04.331Z,100759.63
2023-04-14T06:09:31.822Z,100753.72
2023-04-14T06:11:58.926Z,100749.50
2023-04-14T06:14:25.952Z,100749.66
2023-04-14T06:16:55.500Z,100748.09
2023-04-14T06:19:23.044Z,100752.63
2023-04-14T06:21:50.302Z,100751.91
2023-04-14T06:24:17.473Z,100747.72
2023-04-14T06:26:44.617Z,100741.75
2023-04-14T06:29:12.058Z,100739.28
2023-04-14T06:31:39.286Z,100748.16
2023-04-14T06:34:06.550Z,100736.91
2023-04-14T06:36:33.884Z,100734.44
2023-04-14T06:39:01.568Z,100733.69
2023-04-14T06:41:29.216Z,100741.66
2023-04-14T06:43:56.598Z,100743.53
2023-04-14T06:46:23.684Z,100741.91
2023-04-14T06:48:51.114Z,100736.81
2023-04-14T06:51:18.979Z,100734.34
2023-04-14T06:53:46.236Z,100737.06
2023-04-14T06:56:13.497Z,100731.09
2023-04-14T06:58:41.231Z,100733.00
2023-04-14T07:01:08.389Z,100733.13
2023-04-14T07:03:36.058Z,100728.00
2023-04-14T07:06:11.965Z,100724.66
2023-04-14T07:08:40.756Z,100718.59
2023-04-14T07:11:11.028Z,100716.13
2023-04-14T07:13:40.606Z,100711.88
2023-04-14T07:16:08.759Z,100716.34
2023-04-14T07:18:36.604Z,100713.84
2023-04-14T07:21:03.862Z,100709.53
2023-04-14T07:23:31.620Z,100709.63
2023-04-14T07:26:00.714Z,100712.31
2023-04-14T07:28:28.462Z,100714.16
2023-04-14T07:30:55.793Z,100715.97
2023-04-14T07:33:23.033Z,100705.56
2023-04-14T07:36:02.103Z,100703.88
2023-04-14T07:38:33.256Z,100702.19
2023-04-14T07:41:04.026Z,100700.50
2023-04-14T07:43:37.448Z,100695.31
2023-04-14T07:46:07.187Z,100697.13
2023-04-14T07:48:36.885Z,100693.63
2023-04-14T07:51:05.807Z,100690.16
2023-04-14T07:53:34.018Z,100696.38
2023-04-14T07:56:01.147Z,100698.16
2023-04-14T07:58:29.546Z,100700.78
2023-04-14T08:00:57.397Z,100695.50
2023-04-14T08:03:24.676Z,100702.53
2023-04-14T08:05:52.477Z,100706.03
2023-04-14T08:08:19.685Z,100707.78
2023-04-14T08:10:46.835Z,100705.97
2023-04-14T08:13:13.889Z,100700.69
2023-04-14T08:15:41.097Z,100705.06
2023-04-14T08:18:08.314Z,100708.50
2023-04-14T08:20:35.426Z,100704.09
2023-04-14T08:23:02.650Z,100702.28
2023-04-14T08:25:29.716Z,100699.59
2023-04-14T08:27:56.692Z,100698.69
2023-04-14T08:30:24.774Z,100708.28
2023-04-14T08:32:52.209Z,100704.69
2023-04-14T08:35:38.942Z,100707.31
2023-04-14T08:38:06.385Z,100707.25
2023-04-14T08:40:41.032Z,100705.41
2023-04-14T08:43:08.420Z,100707.13
2023-04-14T08:45:36.797Z,100709.72
2023-04-14T08:48:06.098Z,100705.25
2023-04-14T08:50:43.176Z,100710.50
2023-04-14T08:53:12.662Z,100710.47
2023-04-14T08:55:43.584Z,100715.66
2023-04-14T08:58:11.291Z,100705.91
2023-04-14T09:00:40.308Z,100712.91
2023-04-14T09:03:09.481Z,100705.78
2023-04-14T09:05:37.862Z,100710.06
2023-04-14T09:08:05.241Z,100702.94
2023-04-14T09:10:32.468Z,100701.03
2023-04-14T09:13:01.419Z,100703.47
2023-04-14T09:15:29.220Z,100695.41
2023-04-14T09:17:57.281Z,100702.38
2023-04-14T09:20:37.906Z,100701.41
2023-04-14T09:23:10.178Z,100699.44
2023-04-14T09:25:39.806Z,100703.63
2023-04-14T09:28:07.370Z,100694.00
2023-04-14T09:30:35.053Z,100697.81
2023-04-14T09:33:07.490Z,100691.38
2023-04-14T09:35:47.670Z,100684.69
2023-04-14T09:38:17.083Z,100684.31
2023-04-14T09:40:45.034Z,100689.59
2023-04-14T09:43:27.413Z,100678.25
2023-04-14T09:45:56.149Z,100682.06
2023-04-14T09:48:24.366Z,100679.31
2023-04-14T09:51:07.322Z,100684.69
2023-04-14T09:53:37.806Z,100675.97
2023-04-14T09:56:11.882Z,100675.53
2023-04-14T09:58:42.986Z,100675.00
2023-04-14T10:01:20.707Z,100672.97
2023-04-14T10:03:50.083Z,100665.44
2023-04-14T10:06:20.144Z,100663.31
2023-04-14T10:08:49.486Z,100658.13
2023-04-14T10:11:20.427Z,100662.00
2023-04-14T10:14:00.933Z,100660.34
2023-04-14T10:16:28.264Z,100657.06
2023-04-14T10:18:57.560Z,100650.38
2023-04-14T10:21:26.177Z,100635.63
2023-04-14T10:23:55.582Z,100642.91
2023-04-14T10:26:22.791Z,100634.31
2023-04-14T10:28:53.117Z,100631.19
2023-04-14T10:31:34.982Z,100634.00
2023-04-14T10:34:13.270Z,100634.25
2023-04-14T10:36:40.840Z,100632.69
2023-04-14T10:39:10.380Z,100619.84
2023-04-14T10:41:52.040Z,100622.78
2023-04-14T10:44:36.129Z,100622.81
2023-04-14T10:47:08.370Z,100622.13
2023-04-14T10:49:38.394Z,100614.00
2023-04-14T10:52:27.568Z,100608.69
2023-04-14T10:55:08.149Z,100613.66
2023-04-14T10:57:45.844Z,100611.66
2023-04-14T11:00:25.239Z,100614.47
2023-04-14T11:03:08.330Z,100603.94
2023-04-14T11:05:41.866Z,100603.94
2023-04-14T11:08:36.226Z,100600.94
2023-04-14T11:11:06.045Z,100603.81
2023-04-14T11:13:34.975Z,100597.44
2023-04-14T11:16:09.591Z,100596.03
2023-04-14T11:18:46.875Z,100591.97
2023-04-14T11:21:19.397Z,100595.84
2023-04-14T11:23:50.916Z,100589.66
2023-04-14T11:26:18.510Z,100593.38
2023-04-14T11:28:48.661Z,100592.63
2023-04-14T11:31:27.659Z,100584.84
2023-04-14T11:33:54.907Z,100587.59
2023-04-14T11:36:24.966Z,100594.69
2023-04-14T11:38:52.383Z,100587.94
2023-04-14T11:41:21.615Z,100591.44
2023-04-14T11:43:48.897Z,100595.19
2023-04-14T11:46:19.367Z,100588.09
2023-04-14T11:48:46.521Z,100585.75
2023-04-14T11:51:14.031Z,100585.44
2023-04-14T11:53:43.273Z,100576.00
2023-04-14T11:56:12.822Z,100578.38
2023-04-14T11:58:40.044Z,100580.44
2023-04-14T12:01:07.115Z,100571.38
2023-04-14T12:03:36.837Z,100571.06
2023-04-14T12:06:04.648Z,100568.81
2023-04-14T12:08:32.898Z,100569.22
2023-04-14T12:11:15.763Z,100566.44
2023-04-14T12:13:45.015Z,100560.84
2023-04-14T12:16:13.044Z,100564.09
2023-04-14T12:18:40.814Z,100556.19
2023-04-14T12:21:10.880Z,100564.19
2023-04-14T12:23:40.894Z,100552.81
2023-04-14T12:26:12.385Z,100551.28
2023-04-14T12:28:41.891Z,100558.75
2023-04-14T12:31:10.462Z,100547.31
2023-04-14T12:33:37.756Z,100560.31
2023-04-14T12:36:13.186Z,100547.88
2023-04-14T12:38:40.397Z,100547.09
2023-04-14T12:41:07.565Z,100539.03
2023-04-14T12:43:37.795Z,100539.53
2023-04-14T12:46:05.892Z,100541.34
2023-04-14T12:48:48.428Z,100542.56
2023-04-14T12:51:20.641Z,100544.53
2023-04-14T12:53:50.506Z,100544.34
2023-04-14T12:56:22.334Z,100542.31
2023-04-14T12:58:51.338Z,100547.09
2023-04-14T13:01:22.584Z,100537.28
2023-04-14T13:03:52.577Z,100536.28
2023-04-14T13:06:23.098Z,100528.63
2023-04-14T13:08:53.124Z,100541.06
2023-04-14T13:11:22.544Z,100545.66
2023-04-14T13:13:51.088Z,100538.66
2023-04-14T13:16:18.681Z,100538.34
2023-04-14T13:18:47.595Z,100530.56
2023-04-14T13:21:15.438Z,100528.91
2023-04-14T13:23:42.760Z,100530.88
2023-04-14T13:26:10.588Z,100536.22
2023-04-14T13:28:37.873Z,100527.59
2023-04-14T13:31:05.152Z,100520.63
2023-04-14T13:33:33.273Z,100523.31
2023-04-14T13:36:03.087Z,100508.53
2023-04-14T13:38:31.087Z,100513.38
2023-04-14T13:40:58.435Z,100507.09
2023-04-14T13:43:26.252Z,100508.03
2023-04-14T13:45:56.914Z,100514.47
2023-04-14T13:48:24.108Z,100502.06
2023-04-14T13:50:52.502Z,100510.28
2023-04-14T13:53:19.926Z,100499.72
2023-04-14T13:55:47.077Z,100482.78
2023-04-14T13:58:14.410Z,100485.34
2023-04-14T14:00:41.714Z,100478.59
2023-04-14T14:03:08.966Z,100477.69
2023-04-14T14:05:36.171Z,100479.78
2023-04-14T14:08:03.727Z,100483.63
2023-04-14T14:10:30.978Z,100486.13
2023-04-14T14:12:58.063Z,100473.81
2023-04-14T14:15:25.855Z,100482.25
2023-04-14T14:17:55.798Z,100479.88
2023-04-14T14:20:22.758Z,100471.09
2023-04-14T14:22:49.800Z,100463.97
2023-04-14T14:25:20.106Z,100459.50
2023-04-14T14:27:48.376Z,100461.59
2023-04-14T14:30:15.835Z,100465.47
2023-04-14T14:32:43.107Z,100464.59
2023-04-14T14:35:10.490Z,100459.78
2023-04-14T14:37:37.792Z,100460.94
2023-04-14T14:40:05.852Z,100457.84
2023-04-14T14:42:33.160Z,100461.44
2023-04-14T14:45:00.917Z,100463.25
2023-04-14T14:47:29.006Z,100459.44
2023-04-14T14:50:02.944Z,100459.56
2023-04-14T14:52:32.839Z,100453.81
2023-04-14T14:54:59.970Z,100454.59
2023-04-14T14:57:27.469Z,100456.06
2023-04-14T14:59:54.624Z,100458.84
2023-04-14T15:02:22.561Z,100453.03
2023-04-14T15:04:50.053Z,100451.69
2023-04-14T15:07:18.044Z,100450.09
2023-04-14T15:09:49.878Z,100445.88
2023-04-14T15:12:17.620Z,100455.94
2023-04-14T15:14:44.827Z,100439.97
2023-04-14T15:17:11.862Z,100433.41
2023-04-14T15:19:39.084Z,100430.38
2023-04-14T15:22:06.438Z,100439.84
2023-04-14T15:24:33.861Z,100441.44
2023-04-14T15:27:02.527Z,100442.31
2023-04-14T15:29:30.528Z,100441.44
2023-04-14T15:31:57.650Z,100434.44
2023-04-14T15:34:25.321Z,100437.97
2023-04-14T15:36:52.423Z,100445.75
2023-04-14T15:39:19.524Z,100434.16
2023-04-14T15:41:47.738Z,100440.97
2023-04-14T15:44:16.610Z,100439.06
2023-04-14T15:46:43.709Z,100437.06
2023-04-14T15:49:10.946Z,100436.00
2023-04-14T15:51:38.039Z,100445.25
2023-04-14T15:54:05.273Z,100441.19
2023-04-14T15:56:32.354Z,100443.63
2023-04-14T15:58:59.345Z,100442.06
2023-04-14T16:01:26.507Z,100437.94
2023-04-14T16:03:53.979Z,100437.09
2023-04-14T16:06:21.574Z,100432.16
2023-04-14T16:08:48.621Z,100436.97
2023-04-14T16:11:16.568Z,100431.41
2023-04-14T16:13:44.105Z,100436.66
2023-04-14T16:16:14.213Z,100434.78
2023-04-14T16:18:42.407Z,100432.34
2023-04-14T16:21:09.690Z,100426.06
2023-04-14T16:23:36.872Z,100434.06
2023-04-14T16:26:04.188Z,100439.09
2023-04-14T16:28:31.757Z,100433.50
2023-04-14T16:31:05.370Z,100433.84
2023-04-14T16:33:32.825Z,100434.94
2023-04-14T16:36:07.765Z,100429.84
2023-04-14T16:38:37.621Z,100438.66
2023-04-14T16:41:04.727Z,100434.84
2023-04-14T16:43:31.952Z,100431.13
2023-04-14T16:46:04.175Z,100430.47
2023-04-14T16:48:32.637Z,100425.28
2023-04-14T16:51:10.907Z,100423.88
2023-04-14T16:53:39.029Z,100429.06
2023-04-14T16:56:10.513Z,100425.16
2023-04-14T16:58:39.038Z,100426.53
2023-04-14T17:01:06.907Z,100426.88
2023-04-14T17:03:36.164Z,100422.78
2023-04-14T17:06:04.066Z,100432.78
2023-04-14T17:08:31.196Z,100433.97
2023-04-14T17:10:58.607Z,100435.28
2023-04-14T17:13:26.918Z,100432.03
2023-04-14T17:16:02.449Z,100430.59
2023-04-14T17:18:35.610Z,100428.25
2023-04-14T17:21:03.347Z,100418.66
2023-04-14T17:23:30.564Z,100426.75
2023-04-14T17:25:58.771Z,100431.28
2023-04-14T17:28:27.276Z,100433.97
2023-04-14T17:30:54.364Z,100439.28
2023-04-14T17:33:22.162Z,100435.78
2023-04-14T17:35:49.260Z,100438.56
2023-04-14T17:38:16.335Z,100440.44
2023-04-14T17:40:43.455Z,100433.53
2023-04-14T17:43:10.726Z,100438.88
2023-04-14T17:45:39.922Z,100440.72
2023-04-14T17:48:07.571Z,100443.41
2023-04-14T17:50:36.004Z,100445.19
2023-04-14T17:53:03.111Z,100441.75
2023-04-14T17:55:30.197Z,100437.50
2023-04-14T17:57:57.883Z,100446.34
2023-04-14T18:00:24.939Z,100443.06
2023-04-14T18:02:52.661Z,100447.59
2023-04-14T18:05:19.960Z,100453.00
2023-04-14T18:07:47.076Z,100449.63
2023-04-14T18:10:14.310Z,100436.59
2023-04-14T18:12:41.815Z,100442.97
2023-04-14T18:15:15.190Z,100443.16
2023-04-14T18:17:43.634Z,100438.97
2023-04-14T18:20:12.337Z,100441.00
2023-04-14T18:22:39.520Z,100452.66
2023-04-14T18:25:08.360Z,100445.78
2023-04-14T18:30:07.281Z,100457.69
2023-04-14T18:32:34.551Z,100457.88
2023-04-14T18:35:01.677Z,100463.38
2023-04-14T18:37:28.951Z,100461.78
2023-04-14T18:39:56.776Z,100460.19
2023-04-14T18:42:23.955Z,100460.34
2023-04-14T18:44:51.802Z,100456.06
2023-04-14T18:47:19.691Z,100466.81
2023-04-14T18:49:47.021Z,100474.03
2023-04-14T18:52:14.029Z,100477.66
2023-04-14T18:54:41.202Z,100471.66
2023-04-14T18:57:08.371Z,100474.44
2023-04-14T18:59:36.288Z,100473.69
2023-04-14T19:02:04.559Z,100470.28
2023-04-14T19:04:31.770Z,100470.41
2023-04-14T19:06:58.854Z,100484.56
2023-04-14T19:09:27.504Z,100477.59
2023-04-14T19:11:55.639Z,100481.22
2023-04-14T19:14:23.258Z,100482.19
2023-04-14T19:16:50.315Z,100487.53
2023-04-14T19:19:17.275Z,100478.78
2023-04-14T19:21:44.447Z,100482.38
2023-04-14T19:24:11.863Z,100490.31
2023-04-14T19:26:41.014Z,100492.13
2023-04-14T19:29:08.151Z,100494.78
2023-04-14T19:31:35.469Z,100492.19
2023-04-14T19:34:02.745Z,100486.97
2023-04-14T19:36:32.277Z,100494.84
2023-04-14T19:38:59.768Z,100498.41
2023-04-14T19:41:27.431Z,100494.06
2023-04-14T19:43:54.459Z,100490.53
2023-04-14T19:46:21.805Z,100495.84
2023-04-14T19:48:49.416Z,100501.16
2023-04-14T19:51:16.383Z,100495.03
2023-04-14T19:53:44.215Z,100495.91
2023-04-14T19:56:11.694Z,100507.34
2023-04-14T19:58:38.648Z,100499.44
2023-04-14T20:01:05.817Z,100496.84
2023-04-14T20:03:34.488Z,100500.34
2023-04-14T20:06:02.183Z,100505.59
2023-04-14T20:08:30.549Z,100492.44
2023-04-14T20:10:57.755Z,100499.44
2023-04-14T20:13:27.745Z,100496.84
2023-04-14T20:15:55.314Z,100495.03
2023-04-14T20:18:22.752Z,100492.47
2023-04-14T20:20:50.398Z,100498.66
2023-04-14T20:23:17.784Z,100501.31
2023-04-14T20:25:45.893Z,100502.19
2023-04-14T20:28:15.413Z,100505.78
2023-04-14T20:30:48.200Z,100511.94
2023-04-14T20:33:21.501Z,100505.81
2023-04-14T20:35:51.556Z,100500.53
2023-04-14T20:38:18.941Z,100505.84
2023-04-14T20:40:46.200Z,100504.13
2023-04-14T20:43:13.215Z,100500.63
2023-04-14T20:45:40.563Z,100502.41
2023-04-14T20:48:08.007Z,100495.44
2023-04-14T20:50:35.205Z,100503.34
2023-04-14T20:53:02.245Z,100495.50
2023-04-14T20:55:32.543Z,100487.59
2023-04-14T20:57:59.962Z,100492.91
2023-04-14T21:00:27.019Z,100497.31
2023-04-14T21:02:54.449Z,100492.94
2023-04-14T21:05:22.075Z,100493.88
2023-04-14T21:07:49.563Z,100493.00
2023-04-14T21:10:16.646Z,100490.38
2023-04-14T21:15:06.434Z,100491.31
2023-04-14T21:15:48.584Z,100492.19
2023-04-14T21:18:19.133Z,100490.44
2023-04-14T21:20:46.389Z,100491.31
2023-04-14T21:23:13.663Z,100490.44
2023-04-14T21:25:41.018Z,100493.09
2023-04-14T21:28:08.697Z,100493.06
2023-04-14T21:30:36.057Z,100494.81
2023-04-14T21:33:06.927Z,100490.44
2023-04-14T21:35:35.730Z,100491.31
2023-04-14T21:38:03.485Z,100496.56
2023-04-14T21:40:30.941Z,100497.44
2023-04-14T21:42:58.208Z,100493.91
2023-04-14T21:45:27.044Z,100494.78
2023-04-14T21:47:54.189Z,100498.28
2023-04-14T21:50:21.692Z,100499.16
2023-04-14T21:52:48.669Z,100500.94
2023-04-14T21:55:16.389Z,100495.66
2023-04-14T21:57:49.353Z,100500.94
2023-04-14T22:00:20.325Z,100502.72
2023-04-14T22:02:47.927Z,100502.72
2023-04-14T22:05:15.874Z,100497.47
2023-04-14T22:07:42.988Z,100512.38
2023-04-14T22:10:10.424Z,100507.09
2023-04-14T22:12:39.727Z,100509.78
2023-04-14T22:15:10.558Z,100509.78
2023-04-14T22:17:41.571Z,100507.16
2023-04-14T22:20:09.863Z,100515.03
2023-04-14T22:22:37.255Z,100509.81
2023-04-14T22:25:04.999Z,100514.19
2023-04-14T22:27:33.880Z,100527.31
2023-04-14T22:30:02.052Z,100522.09
2023-04-14T22:32:29.301Z,100519.41
2023-04-14T22:34:56.534Z,100516.78
2023-04-14T22:37:23.752Z,100518.56
2023-04-14T22:39:50.895Z,100521.19
2023-04-14T22:42:18.064Z,100527.31
2023-04-14T22:44:45.277Z,100522.94
2023-04-14T22:47:12.468Z,100525.56
2023-04-14T22:49:39.536Z,100522.94
2023-04-14T22:52:06.751Z,100529.06
2023-04-14T22:54:33.785Z,100529.06
2023-04-14T22:57:01.316Z,100531.69
2023-04-14T22:59:28.315Z,100529.06
2023-04-14T23:01:55.842Z,100526.44
2023-04-14T23:04:23.056Z,100523.81
2023-04-14T23:06:50.140Z,100522.94
2023-04-14T23:09:17.136Z,100527.31
2023-04-14T23:11:44.354Z,100529.06
2023-04-14T23:14:11.573Z,100529.06
2023-04-14T23:16:39.099Z,100517.66
2023-04-14T23:19:06.987Z,100522.06
2023-04-14T23:21:34.720Z,100532.56
2023-04-14T23:24:02.030Z,100530.78
2023-04-14T23:26:29.529Z,100532.56
2023-04-14T23:28:56.760Z,100534.28
2023-04-14T23:31:23.949Z,100534.28
2023-04-14T23:33:52.827Z,100532.50
2023-04-14T23:36:20.456Z,100543.00
2023-04-14T23:38:47.507Z,100533.38
2023-04-14T23:41:14.641Z,100539.47
2023-04-14T23:43:41.740Z,100537.72
2023-04-14T23:46:08.804Z,100535.97
2023-04-14T23:48:36.021Z,100542.94
2023-04-14T23:51:17.904Z,100535.94
2023-04-14T23:53:49.409Z,100542.88
2023-04-14T23:56:16.635Z,100537.66
2023-04-14T23:58:44.544Z,100536.75
